sensor_id;sensor_type;location;lat;lon;timestamp;temperature;humidity
61021;DHT22;46906;43.440;3.752;2022-12-07T00:00:50;4.80;83.00
61021;DHT22;46906;43.440;3.752;2022-12-07T00:03:16;4.70;82.30
61021;DHT22;46906;43.440;3.752;2022-12-07T00:05:41;4.80;82.70
61021;DHT22;46906;43.440;3.752;2022-12-07T00:08:07;4.80;82.70
61021;DHT22;46906;43.440;3.752;2022-12-07T00:10:36;4.80;82.70
61021;DHT22;46906;43.440;3.752;2022-12-07T00:13:01;4.70;82.30
61021;DHT22;46906;43.440;3.752;2022-12-07T00:15:27;4.70;82.40
61021;DHT22;46906;43.440;3.752;2022-12-07T00:17:53;4.70;82.10
61021;DHT22;46906;43.440;3.752;2022-12-07T00:20:18;4.70;81.40
61021;DHT22;46906;43.440;3.752;2022-12-07T00:22:44;4.70;81.90
61021;DHT22;46906;43.440;3.752;2022-12-07T00:25:10;4.60;81.80
61021;DHT22;46906;43.440;3.752;2022-12-07T00:27:35;4.60;82.30
61021;DHT22;46906;43.440;3.752;2022-12-07T00:30:01;4.60;81.40
61021;DHT22;46906;43.440;3.752;2022-12-07T00:32:27;4.60;82.60
61021;DHT22;46906;43.440;3.752;2022-12-07T00:34:53;4.60;82.00
61021;DHT22;46906;43.440;3.752;2022-12-07T00:37:19;4.50;82.20
61021;DHT22;46906;43.440;3.752;2022-12-07T00:39:45;4.50;82.10
61021;DHT22;46906;43.440;3.752;2022-12-07T00:42:11;4.50;81.00
61021;DHT22;46906;43.440;3.752;2022-12-07T00:44:37;4.50;80.90
61021;DHT22;46906;43.440;3.752;2022-12-07T00:47:03;4.50;80.70
61021;DHT22;46906;43.440;3.752;2022-12-07T00:49:28;4.50;81.90
61021;DHT22;46906;43.440;3.752;2022-12-07T00:51:54;4.40;80.50
61021;DHT22;46906;43.440;3.752;2022-12-07T00:54:19;4.20;80.20
61021;DHT22;46906;43.440;3.752;2022-12-07T00:56:45;4.20;80.20
61021;DHT22;46906;43.440;3.752;2022-12-07T00:59:13;4.30;82.20
61021;DHT22;46906;43.440;3.752;2022-12-07T01:01:41;4.30;82.80
61021;DHT22;46906;43.440;3.752;2022-12-07T01:04:07;4.30;83.40
61021;DHT22;46906;43.440;3.752;2022-12-07T01:06:33;4.30;82.90
61021;DHT22;46906;43.440;3.752;2022-12-07T01:08:59;4.20;83.00
61021;DHT22;46906;43.440;3.752;2022-12-07T01:11:26;4.20;83.10
61021;DHT22;46906;43.440;3.752;2022-12-07T01:13:53;4.20;83.20
61021;DHT22;46906;43.440;3.752;2022-12-07T01:16:21;4.10;83.10
61021;DHT22;46906;43.440;3.752;2022-12-07T01:18:50;4.10;83.30
61021;DHT22;46906;43.440;3.752;2022-12-07T01:21:23;4.10;83.20
61021;DHT22;46906;43.440;3.752;2022-12-07T01:23:50;4.10;83.10
61021;DHT22;46906;43.440;3.752;2022-12-07T01:26:18;4.00;82.90
61021;DHT22;46906;43.440;3.752;2022-12-07T01:28:45;4.00;82.20
61021;DHT22;46906;43.440;3.752;2022-12-07T01:31:13;4.00;82.50
61021;DHT22;46906;43.440;3.752;2022-12-07T01:33:45;4.00;82.60
61021;DHT22;46906;43.440;3.752;2022-12-07T01:36:15;4.10;83.20
61021;DHT22;46906;43.440;3.752;2022-12-07T01:38:42;4.10;83.00
61021;DHT22;46906;43.440;3.752;2022-12-07T01:41:08;4.10;82.80
61021;DHT22;46906;43.440;3.752;2022-12-07T01:43:34;4.10;82.70
61021;DHT22;46906;43.440;3.752;2022-12-07T01:46:01;4.10;82.10
61021;DHT22;46906;43.440;3.752;2022-12-07T01:48:41;4.10;82.10
61021;DHT22;46906;43.440;3.752;2022-12-07T01:51:12;4.10;81.90
61021;DHT22;46906;43.440;3.752;2022-12-07T01:53:43;4.10;82.10
61021;DHT22;46906;43.440;3.752;2022-12-07T01:56:15;4.10;81.40
61021;DHT22;46906;43.440;3.752;2022-12-07T01:58:43;4.10;80.70
61021;DHT22;46906;43.440;3.752;2022-12-07T02:01:08;4.10;81.40
61021;DHT22;46906;43.440;3.752;2022-12-07T02:03:40;4.10;81.40
61021;DHT22;46906;43.440;3.752;2022-12-07T02:06:07;4.10;81.10
61021;DHT22;46906;43.440;3.752;2022-12-07T02:08:33;4.10;81.20
61021;DHT22;46906;43.440;3.752;2022-12-07T02:11:04;4.10;81.80
61021;DHT22;46906;43.440;3.752;2022-12-07T02:13:32;4.10;80.80
61021;DHT22;46906;43.440;3.752;2022-12-07T02:29:40;3.90;81.30
61021;DHT22;46906;43.440;3.752;2022-12-07T02:32:18;3.90;82.00
61021;DHT22;46906;43.440;3.752;2022-12-07T02:34:50;3.90;82.40
61021;DHT22;46906;43.440;3.752;2022-12-07T02:37:34;3.90;82.40
61021;DHT22;46906;43.440;3.752;2022-12-07T02:40:08;3.80;82.20
61021;DHT22;46906;43.440;3.752;2022-12-07T02:42:40;3.80;82.40
61021;DHT22;46906;43.440;3.752;2022-12-07T02:45:08;3.70;82.40
61021;DHT22;46906;43.440;3.752;2022-12-07T02:47:36;3.70;82.30
61021;DHT22;46906;43.440;3.752;2022-12-07T02:50:05;3.70;82.60
61021;DHT22;46906;43.440;3.752;2022-12-07T02:52:31;3.70;82.50
61021;DHT22;46906;43.440;3.752;2022-12-07T02:54:57;3.60;82.40
61021;DHT22;46906;43.440;3.752;2022-12-07T03:00:08;3.50;82.30
61021;DHT22;46906;43.440;3.752;2022-12-07T03:08:01;3.50;82.70
61021;DHT22;46906;43.440;3.752;2022-12-07T03:10:56;3.50;82.90
61021;DHT22;46906;43.440;3.752;2022-12-07T03:19:08;3.20;82.70
61021;DHT22;46906;43.440;3.752;2022-12-07T03:21:39;3.30;83.20
61021;DHT22;46906;43.440;3.752;2022-12-07T03:24:10;3.20;83.10
61021;DHT22;46906;43.440;3.752;2022-12-07T03:26:41;3.20;83.10
61021;DHT22;46906;43.440;3.752;2022-12-07T03:29:14;3.20;82.90
61021;DHT22;46906;43.440;3.752;2022-12-07T03:31:46;3.10;83.20
61021;DHT22;46906;43.440;3.752;2022-12-07T03:34:30;3.20;83.10
61021;DHT22;46906;43.440;3.752;2022-12-07T03:37:05;3.10;82.90
61021;DHT22;46906;43.440;3.752;2022-12-07T03:42:18;3.10;82.80
61021;DHT22;46906;43.440;3.752;2022-12-07T03:44:44;3.10;83.10
61021;DHT22;46906;43.440;3.752;2022-12-07T03:47:26;3.10;82.90
61021;DHT22;46906;43.440;3.752;2022-12-07T03:49:59;3.10;82.50
61021;DHT22;46906;43.440;3.752;2022-12-07T03:52:40;3.10;82.30
61021;DHT22;46906;43.440;3.752;2022-12-07T03:55:11;3.00;82.20
61021;DHT22;46906;43.440;3.752;2022-12-07T03:57:40;3.10;82.60
61021;DHT22;46906;43.440;3.752;2022-12-07T04:00:08;3.10;82.40
61021;DHT22;46906;43.440;3.752;2022-12-07T04:02:35;3.10;82.50
61021;DHT22;46906;43.440;3.752;2022-12-07T04:05:01;3.10;82.30
61021;DHT22;46906;43.440;3.752;2022-12-07T04:07:27;3.10;82.20
61021;DHT22;46906;43.440;3.752;2022-12-07T04:09:52;3.10;82.30
61021;DHT22;46906;43.440;3.752;2022-12-07T04:12:20;3.10;82.40
61021;DHT22;46906;43.440;3.752;2022-12-07T04:14:46;3.10;82.00
61021;DHT22;46906;43.440;3.752;2022-12-07T04:17:12;3.10;81.50
61021;DHT22;46906;43.440;3.752;2022-12-07T04:19:38;3.10;81.20
61021;DHT22;46906;43.440;3.752;2022-12-07T04:22:04;3.10;81.20
61021;DHT22;46906;43.440;3.752;2022-12-07T04:24:30;3.20;80.80
61021;DHT22;46906;43.440;3.752;2022-12-07T04:26:56;3.20;81.20
61021;DHT22;46906;43.440;3.752;2022-12-07T04:29:22;3.20;81.20
61021;DHT22;46906;43.440;3.752;2022-12-07T04:31:49;3.10;81.10
61021;DHT22;46906;43.440;3.752;2022-12-07T04:34:16;3.10;79.90
61021;DHT22;46906;43.440;3.752;2022-12-07T04:36:42;3.10;80.20
61021;DHT22;46906;43.440;3.752;2022-12-07T04:39:18;3.10;81.00
61021;DHT22;46906;43.440;3.752;2022-12-07T04:41:44;3.10;81.50
61021;DHT22;46906;43.440;3.752;2022-12-07T04:44:11;3.10;81.30
61021;DHT22;46906;43.440;3.752;2022-12-07T04:46:39;3.10;81.00
61021;DHT22;46906;43.440;3.752;2022-12-07T04:49:05;3.10;81.60
61021;DHT22;46906;43.440;3.752;2022-12-07T04:51:31;3.10;81.10
61021;DHT22;46906;43.440;3.752;2022-12-07T04:53:57;3.10;81.70
61021;DHT22;46906;43.440;3.752;2022-12-07T04:56:23;3.10;80.90
61021;DHT22;46906;43.440;3.752;2022-12-07T04:58:49;3.10;81.30
61021;DHT22;46906;43.440;3.752;2022-12-07T05:01:17;3.10;81.60
61021;DHT22;46906;43.440;3.752;2022-12-07T05:03:43;3.00;81.30
61021;DHT22;46906;43.440;3.752;2022-12-07T05:06:11;3.00;81.50
61021;DHT22;46906;43.440;3.752;2022-12-07T05:08:37;3.00;81.20
61021;DHT22;46906;43.440;3.752;2022-12-07T05:11:04;3.00;81.20
61021;DHT22;46906;43.440;3.752;2022-12-07T05:13:30;2.90;81.20
61021;DHT22;46906;43.440;3.752;2022-12-07T05:15:56;2.90;81.20
61021;DHT22;46906;43.440;3.752;2022-12-07T05:18:21;2.90;80.70
61021;DHT22;46906;43.440;3.752;2022-12-07T05:20:47;2.90;80.70
61021;DHT22;46906;43.440;3.752;2022-12-07T05:23:14;2.90;81.20
61021;DHT22;46906;43.440;3.752;2022-12-07T05:25:39;2.90;80.50
61021;DHT22;46906;43.440;3.752;2022-12-07T05:28:06;2.90;80.40
61021;DHT22;46906;43.440;3.752;2022-12-07T05:30:32;2.90;81.30
61021;DHT22;46906;43.440;3.752;2022-12-07T05:32:57;2.80;81.10
61021;DHT22;46906;43.440;3.752;2022-12-07T05:35:23;2.80;80.10
61021;DHT22;46906;43.440;3.752;2022-12-07T05:37:49;2.80;81.50
61021;DHT22;46906;43.440;3.752;2022-12-07T05:40:16;2.80;81.40
61021;DHT22;46906;43.440;3.752;2022-12-07T05:42:41;2.80;80.20
61021;DHT22;46906;43.440;3.752;2022-12-07T05:45:08;2.80;80.70
61021;DHT22;46906;43.440;3.752;2022-12-07T05:47:34;2.70;79.80
61021;DHT22;46906;43.440;3.752;2022-12-07T05:50:00;2.70;80.80
61021;DHT22;46906;43.440;3.752;2022-12-07T05:52:25;2.70;80.90
61021;DHT22;46906;43.440;3.752;2022-12-07T05:54:52;2.70;80.90
61021;DHT22;46906;43.440;3.752;2022-12-07T05:57:18;2.70;80.30
61021;DHT22;46906;43.440;3.752;2022-12-07T05:59:44;2.60;80.10
61021;DHT22;46906;43.440;3.752;2022-12-07T06:02:12;2.60;81.00
61021;DHT22;46906;43.440;3.752;2022-12-07T06:04:43;2.60;80.90
61021;DHT22;46906;43.440;3.752;2022-12-07T06:07:09;2.70;81.60
61021;DHT22;46906;43.440;3.752;2022-12-07T06:09:35;2.70;81.10
61021;DHT22;46906;43.440;3.752;2022-12-07T06:12:02;2.70;80.70
61021;DHT22;46906;43.440;3.752;2022-12-07T06:14:47;2.70;81.80
61021;DHT22;46906;43.440;3.752;2022-12-07T06:17:13;2.70;81.60
61021;DHT22;46906;43.440;3.752;2022-12-07T06:19:39;2.70;81.30
61021;DHT22;46906;43.440;3.752;2022-12-07T06:22:05;2.70;80.70
61021;DHT22;46906;43.440;3.752;2022-12-07T06:24:31;2.70;81.20
61021;DHT22;46906;43.440;3.752;2022-12-07T06:26:57;2.70;81.40
61021;DHT22;46906;43.440;3.752;2022-12-07T06:29:23;2.70;81.20
61021;DHT22;46906;43.440;3.752;2022-12-07T06:31:49;2.80;81.40
61021;DHT22;46906;43.440;3.752;2022-12-07T06:34:17;2.80;80.90
61021;DHT22;46906;43.440;3.752;2022-12-07T06:36:43;2.80;81.20
61021;DHT22;46906;43.440;3.752;2022-12-07T06:39:09;2.70;80.60
61021;DHT22;46906;43.440;3.752;2022-12-07T06:41:36;2.70;81.30
61021;DHT22;46906;43.440;3.752;2022-12-07T06:44:03;2.70;81.50
61021;DHT22;46906;43.440;3.752;2022-12-07T06:46:29;2.70;81.20
61021;DHT22;46906;43.440;3.752;2022-12-07T06:48:54;2.60;80.50
61021;DHT22;46906;43.440;3.752;2022-12-07T06:51:20;2.60;80.70
61021;DHT22;46906;43.440;3.752;2022-12-07T06:53:46;2.70;80.70
61021;DHT22;46906;43.440;3.752;2022-12-07T06:56:12;2.70;81.00
61021;DHT22;46906;43.440;3.752;2022-12-07T06:58:38;2.70;81.60
61021;DHT22;46906;43.440;3.752;2022-12-07T07:01:09;2.70;81.40
61021;DHT22;46906;43.440;3.752;2022-12-07T07:03:35;2.70;81.30
61021;DHT22;46906;43.440;3.752;2022-12-07T07:06:01;2.70;80.90
61021;DHT22;46906;43.440;3.752;2022-12-07T07:08:27;2.70;79.60
61021;DHT22;46906;43.440;3.752;2022-12-07T07:10:52;2.70;79.60
61021;DHT22;46906;43.440;3.752;2022-12-07T07:13:18;2.80;80.70
61021;DHT22;46906;43.440;3.752;2022-12-07T07:15:44;2.80;81.30
61021;DHT22;46906;43.440;3.752;2022-12-07T07:18:10;2.80;80.60
61021;DHT22;46906;43.440;3.752;2022-12-07T07:20:36;2.70;78.90
61021;DHT22;46906;43.440;3.752;2022-12-07T07:23:02;2.70;80.80
61021;DHT22;46906;43.440;3.752;2022-12-07T07:25:27;2.70;81.30
61021;DHT22;46906;43.440;3.752;2022-12-07T07:27:53;2.70;79.70
61021;DHT22;46906;43.440;3.752;2022-12-07T07:30:19;2.70;80.90
61021;DHT22;46906;43.440;3.752;2022-12-07T07:32:45;2.70;81.10
61021;DHT22;46906;43.440;3.752;2022-12-07T07:35:10;2.70;81.10
61021;DHT22;46906;43.440;3.752;2022-12-07T07:37:36;2.60;81.80
61021;DHT22;46906;43.440;3.752;2022-12-07T07:40:02;2.60;81.80
61021;DHT22;46906;43.440;3.752;2022-12-07T07:42:27;2.50;80.60
61021;DHT22;46906;43.440;3.752;2022-12-07T07:44:53;2.50;81.80
61021;DHT22;46906;43.440;3.752;2022-12-07T07:47:19;2.50;81.60
61021;DHT22;46906;43.440;3.752;2022-12-07T07:49:44;2.50;80.60
61021;DHT22;46906;43.440;3.752;2022-12-07T07:52:10;2.60;81.50
61021;DHT22;46906;43.440;3.752;2022-12-07T07:54:36;2.60;81.00
61021;DHT22;46906;43.440;3.752;2022-12-07T07:57:02;2.70;80.30
61021;DHT22;46906;43.440;3.752;2022-12-07T07:59:27;2.70;79.70
61021;DHT22;46906;43.440;3.752;2022-12-07T08:01:53;2.60;79.90
61021;DHT22;46906;43.440;3.752;2022-12-07T08:04:19;2.70;81.10
61021;DHT22;46906;43.440;3.752;2022-12-07T08:06:44;2.70;81.90
61021;DHT22;46906;43.440;3.752;2022-12-07T08:09:10;2.80;81.60
61021;DHT22;46906;43.440;3.752;2022-12-07T08:11:36;2.80;81.30
61021;DHT22;46906;43.440;3.752;2022-12-07T08:14:02;2.70;80.50
61021;DHT22;46906;43.440;3.752;2022-12-07T08:16:28;2.70;81.10
61021;DHT22;46906;43.440;3.752;2022-12-07T08:18:54;2.80;81.50
61021;DHT22;46906;43.440;3.752;2022-12-07T08:21:19;2.80;81.70
61021;DHT22;46906;43.440;3.752;2022-12-07T08:23:45;2.90;82.10
61021;DHT22;46906;43.440;3.752;2022-12-07T08:26:13;2.90;81.10
61021;DHT22;46906;43.440;3.752;2022-12-07T08:28:40;3.00;80.60
61021;DHT22;46906;43.440;3.752;2022-12-07T08:31:06;3.60;80.40
61021;DHT22;46906;43.440;3.752;2022-12-07T08:33:33;3.50;79.10
61021;DHT22;46906;43.440;3.752;2022-12-07T08:36:07;3.50;79.50
61021;DHT22;46906;43.440;3.752;2022-12-07T08:38:37;3.50;80.50
61021;DHT22;46906;43.440;3.752;2022-12-07T08:41:04;3.50;79.30
61021;DHT22;46906;43.440;3.752;2022-12-07T08:43:30;3.60;79.20
61021;DHT22;46906;43.440;3.752;2022-12-07T08:48:31;3.80;78.80
61021;DHT22;46906;43.440;3.752;2022-12-07T08:50:58;3.90;78.60
61021;DHT22;46906;43.440;3.752;2022-12-07T08:53:24;3.90;78.20
61021;DHT22;46906;43.440;3.752;2022-12-07T08:55:50;4.00;77.00
61021;DHT22;46906;43.440;3.752;2022-12-07T08:58:16;4.10;76.60
61021;DHT22;46906;43.440;3.752;2022-12-07T09:00:41;4.20;77.90
61021;DHT22;46906;43.440;3.752;2022-12-07T09:03:07;4.20;75.50
61021;DHT22;46906;43.440;3.752;2022-12-07T09:05:33;4.30;74.50
61021;DHT22;46906;43.440;3.752;2022-12-07T09:08:01;4.40;75.80
61021;DHT22;46906;43.440;3.752;2022-12-07T09:10:28;4.40;75.90
61021;DHT22;46906;43.440;3.752;2022-12-07T09:12:54;4.50;75.50
61021;DHT22;46906;43.440;3.752;2022-12-07T09:15:20;4.50;75.60
61021;DHT22;46906;43.440;3.752;2022-12-07T09:17:46;4.60;73.80
61021;DHT22;46906;43.440;3.752;2022-12-07T09:20:12;4.60;76.00
61021;DHT22;46906;43.440;3.752;2022-12-07T09:22:38;4.70;75.70
61021;DHT22;46906;43.440;3.752;2022-12-07T09:25:04;4.70;75.60
61021;DHT22;46906;43.440;3.752;2022-12-07T09:27:30;4.70;77.10
61021;DHT22;46906;43.440;3.752;2022-12-07T09:29:56;4.80;76.60
61021;DHT22;46906;43.440;3.752;2022-12-07T09:32:22;4.80;76.20
61021;DHT22;46906;43.440;3.752;2022-12-07T09:34:48;4.80;75.00
61021;DHT22;46906;43.440;3.752;2022-12-07T09:37:14;4.90;75.80
61021;DHT22;46906;43.440;3.752;2022-12-07T09:39:40;4.90;74.80
61021;DHT22;46906;43.440;3.752;2022-12-07T09:42:07;4.90;75.40
61021;DHT22;46906;43.440;3.752;2022-12-07T09:44:34;5.00;75.60
61021;DHT22;46906;43.440;3.752;2022-12-07T09:47:00;5.10;75.60
61021;DHT22;46906;43.440;3.752;2022-12-07T09:49:31;5.10;74.70
61021;DHT22;46906;43.440;3.752;2022-12-07T09:54:41;5.20;74.60
61021;DHT22;46906;43.440;3.752;2022-12-07T09:57:11;5.30;74.10
61021;DHT22;46906;43.440;3.752;2022-12-07T09:59:38;5.30;74.20
61021;DHT22;46906;43.440;3.752;2022-12-07T10:02:35;5.40;73.80
61021;DHT22;46906;43.440;3.752;2022-12-07T10:05:04;5.50;73.30
61021;DHT22;46906;43.440;3.752;2022-12-07T10:07:30;5.60;73.10
61021;DHT22;46906;43.440;3.752;2022-12-07T10:09:56;5.70;74.00
61021;DHT22;46906;43.440;3.752;2022-12-07T10:12:21;5.70;74.00
61021;DHT22;46906;43.440;3.752;2022-12-07T10:14:59;5.70;73.70
61021;DHT22;46906;43.440;3.752;2022-12-07T10:20:19;5.80;72.30
61021;DHT22;46906;43.440;3.752;2022-12-07T10:23:04;5.80;73.30
61021;DHT22;46906;43.440;3.752;2022-12-07T10:25:37;5.90;74.30
61021;DHT22;46906;43.440;3.752;2022-12-07T10:30:33;6.00;73.60
61021;DHT22;46906;43.440;3.752;2022-12-07T10:32:59;6.10;73.40
61021;DHT22;46906;43.440;3.752;2022-12-07T10:35:30;6.10;72.50
61021;DHT22;46906;43.440;3.752;2022-12-07T10:37:58;6.20;72.50
61021;DHT22;46906;43.440;3.752;2022-12-07T10:40:29;6.20;72.10
61021;DHT22;46906;43.440;3.752;2022-12-07T10:43:18;6.40;71.70
61021;DHT22;46906;43.440;3.752;2022-12-07T10:48:29;6.40;70.60
61021;DHT22;46906;43.440;3.752;2022-12-07T10:54:21;6.50;71.40
61021;DHT22;46906;43.440;3.752;2022-12-07T11:00:18;6.80;69.60
61021;DHT22;46906;43.440;3.752;2022-12-07T11:10:42;7.00;70.20
61021;DHT22;46906;43.440;3.752;2022-12-07T11:16:03;7.00;68.50
61021;DHT22;46906;43.440;3.752;2022-12-07T11:24:18;7.00;67.20
61021;DHT22;46906;43.440;3.752;2022-12-07T11:29:47;7.30;67.60
61021;DHT22;46906;43.440;3.752;2022-12-07T11:35:08;7.10;71.20
61021;DHT22;46906;43.440;3.752;2022-12-07T11:37:37;7.10;69.90
61021;DHT22;46906;43.440;3.752;2022-12-07T11:40:28;7.20;69.50
61021;DHT22;46906;43.440;3.752;2022-12-07T11:42:59;7.30;69.70
61021;DHT22;46906;43.440;3.752;2022-12-07T11:45:30;7.30;70.10
61021;DHT22;46906;43.440;3.752;2022-12-07T11:48:14;7.30;69.50
61021;DHT22;46906;43.440;3.752;2022-12-07T11:50:53;7.30;69.60
61021;DHT22;46906;43.440;3.752;2022-12-07T11:54:11;7.40;69.10
61021;DHT22;46906;43.440;3.752;2022-12-07T11:56:21;7.40;68.20
61021;DHT22;46906;43.440;3.752;2022-12-07T11:58:59;7.40;68.10
61021;DHT22;46906;43.440;3.752;2022-12-07T12:04:29;7.50;70.20
61021;DHT22;46906;43.440;3.752;2022-12-07T12:06:57;7.50;68.20
61021;DHT22;46906;43.440;3.752;2022-12-07T12:15:23;7.80;67.80
61021;DHT22;46906;43.440;3.752;2022-12-07T12:23:19;7.80;68.00
61021;DHT22;46906;43.440;3.752;2022-12-07T12:25:58;7.80;68.20
61021;DHT22;46906;43.440;3.752;2022-12-07T12:28:41;7.70;68.10
61021;DHT22;46906;43.440;3.752;2022-12-07T12:31:15;7.80;66.60
61021;DHT22;46906;43.440;3.752;2022-12-07T12:33:51;7.80;69.60
61021;DHT22;46906;43.440;3.752;2022-12-07T12:46:55;7.80;68.40
61021;DHT22;46906;43.440;3.752;2022-12-07T12:51:53;8.00;66.30
61021;DHT22;46906;43.440;3.752;2022-12-07T12:54:25;8.10;66.80
61021;DHT22;46906;43.440;3.752;2022-12-07T13:02:36;8.00;68.80
61021;DHT22;46906;43.440;3.752;2022-12-07T13:07:52;8.10;67.40
61021;DHT22;46906;43.440;3.752;2022-12-07T13:15:39;8.10;67.80
61021;DHT22;46906;43.440;3.752;2022-12-07T13:18:22;8.10;68.70
61021;DHT22;46906;43.440;3.752;2022-12-07T13:29:20;8.10;68.80
61021;DHT22;46906;43.440;3.752;2022-12-07T13:31:53;8.10;69.50
61021;DHT22;46906;43.440;3.752;2022-12-07T13:34:37;8.10;67.00
61021;DHT22;46906;43.440;3.752;2022-12-07T13:37:26;8.30;65.50
61021;DHT22;46906;43.440;3.752;2022-12-07T13:39:59;8.20;67.20
61021;DHT22;46906;43.440;3.752;2022-12-07T13:42:27;8.10;67.50
61021;DHT22;46906;43.440;3.752;2022-12-07T13:44:54;8.20;67.60
61021;DHT22;46906;43.440;3.752;2022-12-07T13:50:01;8.10;68.30
61021;DHT22;46906;43.440;3.752;2022-12-07T13:52:29;8.10;68.20
61021;DHT22;46906;43.440;3.752;2022-12-07T13:54:56;8.20;68.10
61021;DHT22;46906;43.440;3.752;2022-12-07T13:57:24;8.20;66.90
61021;DHT22;46906;43.440;3.752;2022-12-07T13:59:50;8.30;65.50
61021;DHT22;46906;43.440;3.752;2022-12-07T14:02:18;8.30;65.00
61021;DHT22;46906;43.440;3.752;2022-12-07T14:04:45;8.30;66.20
61021;DHT22;46906;43.440;3.752;2022-12-07T14:07:26;8.20;68.50
61021;DHT22;46906;43.440;3.752;2022-12-07T14:09:58;8.20;67.80
61021;DHT22;46906;43.440;3.752;2022-12-07T14:12:25;8.30;65.30
61021;DHT22;46906;43.440;3.752;2022-12-07T14:14:51;8.30;68.20
61021;DHT22;46906;43.440;3.752;2022-12-07T14:17:20;8.30;66.40
61021;DHT22;46906;43.440;3.752;2022-12-07T14:19:54;8.30;68.00
61021;DHT22;46906;43.440;3.752;2022-12-07T14:25:43;8.20;67.90
61021;DHT22;46906;43.440;3.752;2022-12-07T14:27:51;8.20;67.00
61021;DHT22;46906;43.440;3.752;2022-12-07T14:30:18;8.30;66.60
61021;DHT22;46906;43.440;3.752;2022-12-07T14:32:46;8.30;66.30
61021;DHT22;46906;43.440;3.752;2022-12-07T14:35:16;8.20;68.30
61021;DHT22;46906;43.440;3.752;2022-12-07T14:37:44;8.20;67.60
61021;DHT22;46906;43.440;3.752;2022-12-07T14:40:17;8.10;67.60
61021;DHT22;46906;43.440;3.752;2022-12-07T14:42:45;8.10;68.30
61021;DHT22;46906;43.440;3.752;2022-12-07T14:45:17;8.10;68.00
61021;DHT22;46906;43.440;3.752;2022-12-07T14:47:44;8.20;67.20
61021;DHT22;46906;43.440;3.752;2022-12-07T14:50:13;8.20;67.20
61021;DHT22;46906;43.440;3.752;2022-12-07T14:52:39;8.20;67.00
61021;DHT22;46906;43.440;3.752;2022-12-07T14:55:13;8.20;66.70
61021;DHT22;46906;43.440;3.752;2022-12-07T14:57:39;8.20;68.60
61021;DHT22;46906;43.440;3.752;2022-12-07T15:00:05;8.10;68.00
61021;DHT22;46906;43.440;3.752;2022-12-07T15:02:31;8.10;67.60
61021;DHT22;46906;43.440;3.752;2022-12-07T15:04:57;8.10;67.20
61021;DHT22;46906;43.440;3.752;2022-12-07T15:07:23;8.10;68.10
61021;DHT22;46906;43.440;3.752;2022-12-07T15:09:50;8.20;67.70
61021;DHT22;46906;43.440;3.752;2022-12-07T15:12:16;8.00;68.50
61021;DHT22;46906;43.440;3.752;2022-12-07T15:14:42;8.00;69.10
61021;DHT22;46906;43.440;3.752;2022-12-07T15:17:11;8.00;68.70
61021;DHT22;46906;43.440;3.752;2022-12-07T15:19:37;8.00;69.40
61021;DHT22;46906;43.440;3.752;2022-12-07T15:22:05;7.90;69.70
61021;DHT22;46906;43.440;3.752;2022-12-07T15:24:30;8.00;67.50
61021;DHT22;46906;43.440;3.752;2022-12-07T15:26:56;8.00;68.80
61021;DHT22;46906;43.440;3.752;2022-12-07T15:29:22;8.10;68.20
61021;DHT22;46906;43.440;3.752;2022-12-07T15:31:49;8.20;70.50
61021;DHT22;46906;43.440;3.752;2022-12-07T15:34:15;8.00;70.60
61021;DHT22;46906;43.440;3.752;2022-12-07T15:36:40;7.90;71.10
61021;DHT22;46906;43.440;3.752;2022-12-07T15:39:06;7.70;71.00
61021;DHT22;46906;43.440;3.752;2022-12-07T15:41:32;7.60;69.00
61021;DHT22;46906;43.440;3.752;2022-12-07T15:43:57;7.70;70.30
61021;DHT22;46906;43.440;3.752;2022-12-07T15:46:41;7.60;71.60
61021;DHT22;46906;43.440;3.752;2022-12-07T15:49:16;7.50;69.80
61021;DHT22;46906;43.440;3.752;2022-12-07T15:51:43;7.60;71.30
61021;DHT22;46906;43.440;3.752;2022-12-07T15:54:13;7.40;71.30
61021;DHT22;46906;43.440;3.752;2022-12-07T15:56:41;7.30;71.50
61021;DHT22;46906;43.440;3.752;2022-12-07T15:59:06;7.30;71.50
61021;DHT22;46906;43.440;3.752;2022-12-07T16:01:32;7.20;72.90
61021;DHT22;46906;43.440;3.752;2022-12-07T16:03:58;7.10;74.30
61021;DHT22;46906;43.440;3.752;2022-12-07T16:06:24;7.00;75.30
61021;DHT22;46906;43.440;3.752;2022-12-07T16:08:50;6.90;74.90
61021;DHT22;46906;43.440;3.752;2022-12-07T16:11:16;6.90;71.90
61021;DHT22;46906;43.440;3.752;2022-12-07T16:13:42;6.90;73.60
61021;DHT22;46906;43.440;3.752;2022-12-07T16:16:11;6.80;73.90
61021;DHT22;46906;43.440;3.752;2022-12-07T16:18:37;6.80;74.10
61021;DHT22;46906;43.440;3.752;2022-12-07T16:21:03;6.80;73.00
61021;DHT22;46906;43.440;3.752;2022-12-07T16:23:29;6.70;73.60
61021;DHT22;46906;43.440;3.752;2022-12-07T16:26:13;6.60;73.80
61021;DHT22;46906;43.440;3.752;2022-12-07T16:28:39;6.60;73.90
61021;DHT22;46906;43.440;3.752;2022-12-07T16:31:17;6.60;73.20
61021;DHT22;46906;43.440;3.752;2022-12-07T16:33:44;6.50;72.90
61021;DHT22;46906;43.440;3.752;2022-12-07T16:36:11;6.50;72.20
61021;DHT22;46906;43.440;3.752;2022-12-07T16:38:37;6.50;72.30
61021;DHT22;46906;43.440;3.752;2022-12-07T16:41:07;6.40;75.10
61021;DHT22;46906;43.440;3.752;2022-12-07T16:43:33;6.40;75.40
61021;DHT22;46906;43.440;3.752;2022-12-07T16:45:59;6.30;75.70
61021;DHT22;46906;43.440;3.752;2022-12-07T16:48:25;6.30;76.50
61021;DHT22;46906;43.440;3.752;2022-12-07T16:50:51;6.20;76.80
61021;DHT22;46906;43.440;3.752;2022-12-07T16:53:20;6.20;76.20
61021;DHT22;46906;43.440;3.752;2022-12-07T16:55:46;6.10;74.70
61021;DHT22;46906;43.440;3.752;2022-12-07T16:58:13;6.10;72.50
61021;DHT22;46906;43.440;3.752;2022-12-07T17:00:40;6.10;75.80
61021;DHT22;46906;43.440;3.752;2022-12-07T17:03:07;6.00;74.60
61021;DHT22;46906;43.440;3.752;2022-12-07T17:05:33;6.00;75.40
61021;DHT22;46906;43.440;3.752;2022-12-07T17:07:59;6.00;75.30
61021;DHT22;46906;43.440;3.752;2022-12-07T17:10:26;5.90;75.10
61021;DHT22;46906;43.440;3.752;2022-12-07T17:12:52;6.00;75.10
61021;DHT22;46906;43.440;3.752;2022-12-07T17:15:18;5.90;75.60
61021;DHT22;46906;43.440;3.752;2022-12-07T17:17:57;5.90;75.00
61021;DHT22;46906;43.440;3.752;2022-12-07T17:20:25;5.90;74.90
61021;DHT22;46906;43.440;3.752;2022-12-07T17:22:51;5.90;74.10
61021;DHT22;46906;43.440;3.752;2022-12-07T17:25:17;5.90;74.50
61021;DHT22;46906;43.440;3.752;2022-12-07T17:27:44;5.90;74.20
61021;DHT22;46906;43.440;3.752;2022-12-07T17:30:11;5.90;73.30
61021;DHT22;46906;43.440;3.752;2022-12-07T17:32:37;5.90;73.10
61021;DHT22;46906;43.440;3.752;2022-12-07T17:35:03;5.90;73.20
61021;DHT22;46906;43.440;3.752;2022-12-07T17:37:30;5.90;73.00
61021;DHT22;46906;43.440;3.752;2022-12-07T17:39:57;5.80;73.50
61021;DHT22;46906;43.440;3.752;2022-12-07T17:42:24;5.80;74.50
61021;DHT22;46906;43.440;3.752;2022-12-07T17:45:03;5.80;74.40
61021;DHT22;46906;43.440;3.752;2022-12-07T17:47:30;5.70;74.90
61021;DHT22;46906;43.440;3.752;2022-12-07T17:49:55;5.60;75.60
61021;DHT22;46906;43.440;3.752;2022-12-07T17:52:21;5.60;74.80
61021;DHT22;46906;43.440;3.752;2022-12-07T17:55:06;5.60;76.20
61021;DHT22;46906;43.440;3.752;2022-12-07T17:57:32;5.50;75.80
61021;DHT22;46906;43.440;3.752;2022-12-07T17:59:57;5.50;75.10